Time;durP1;ratioP1;P1;durP2;ratioP2;P2;SDS_P1;SDS_P2;PMS_P1;PMS_P2;Temp;Humidity;BMP_temperature;BMP_pressure;BME280_temperature;BME280_humidity;BME280_pressure;Samples;Min_cycle;Max_cycle;Signal;HPM_P1;HPM_P2
2023/05/28 00:02:08;;;;;;;1999.90;999.90;;;;;;;15.63;99.22;98081.50;5051550;28;20389;-76
2023/05/28 00:04:33;;;;;;;1999.90;999.90;;;;;;;15.57;98.91;98088.31;5052963;28;20115;-76
2023/05/28 00:06:59;;;;;;;1999.90;999.90;;;;;;;15.62;99.48;98077.16;5052462;28;20577;-75
2023/05/28 00:09:24;;;;;;;1999.90;999.90;;;;;;;15.48;100.00;98080.06;5051884;28;20112;-76
2023/05/28 00:11:50;;;;;;;1999.90;999.90;;;;;;;15.58;97.35;98064.31;5050985;28;20379;-77
2023/05/28 00:14:15;;;;;;;1999.90;999.90;;;;;;;15.62;98.92;98066.13;5051483;28;20052;-77
2023/05/28 00:16:43;;;;;;;1999.90;999.90;;;;;;;15.53;100.00;98076.34;5052857;28;20025;-76
2023/05/28 00:19:09;;;;;;;1999.90;999.90;;;;;;;15.46;100.00;98073.22;5052746;28;20780;-75
2023/05/28 00:21:35;;;;;;;1999.90;999.90;;;;;;;15.46;100.00;98068.53;5052435;28;20060;-76
2023/05/28 00:24:00;;;;;;;1999.90;999.90;;;;;;;15.40;100.00;98078.09;5052524;28;20025;-75
2023/05/28 00:26:26;;;;;;;1999.90;999.90;;;;;;;15.41;100.00;98067.88;5052409;28;20444;-76
2023/05/28 00:28:52;;;;;;;1999.90;999.90;;;;;;;15.37;100.00;98066.91;5051307;28;20474;-75
2023/05/28 00:31:17;;;;;;;1999.90;999.90;;;;;;;15.52;100.00;98060.94;5052118;28;20545;-75
2023/05/28 00:33:43;;;;;;;1999.90;999.90;;;;;;;15.50;100.00;98071.47;5052873;28;20027;-75
2023/05/28 00:36:10;;;;;;;1999.90;999.90;;;;;;;15.34;100.00;98068.34;5055627;28;20067;-76
2023/05/28 00:38:35;;;;;;;1999.90;999.90;;;;;;;15.28;100.00;98064.13;5054840;28;20036;-77
2023/05/28 00:41:01;;;;;;;1999.90;999.90;;;;;;;15.15;100.00;98056.00;5057198;28;20029;-76
2023/05/28 00:43:26;;;;;;;1999.90;999.90;;;;;;;14.95;100.00;98055.50;5058827;28;20135;-77
2023/05/28 00:45:51;;;;;;;1999.90;999.90;;;;;;;14.83;100.00;98060.00;5052650;28;20043;-75
2023/05/28 00:48:17;;;;;;;1999.90;999.90;;;;;;;14.73;100.00;98047.34;5052080;28;20385;-75
2023/05/28 00:50:43;;;;;;;1999.90;999.90;;;;;;;14.74;100.00;98053.66;5050763;28;20013;-76
2023/05/28 00:53:11;;;;;;;1999.90;999.90;;;;;;;14.69;100.00;98046.34;5050383;28;20516;-75
2023/05/28 00:55:36;;;;;;;1999.90;999.90;;;;;;;14.67;100.00;98048.63;5050519;28;20965;-76
2023/05/28 00:58:05;;;;;;;1999.90;999.90;;;;;;;14.66;100.00;98037.94;5050532;28;20029;-77
2023/05/28 01:00:32;;;;;;;1999.90;999.90;;;;;;;14.61;100.00;98038.88;5051850;28;20108;-76
2023/05/28 01:02:58;;;;;;;1999.90;999.90;;;;;;;14.73;100.00;98044.59;5051910;28;20025;-75
2023/05/28 01:05:24;;;;;;;1999.90;999.90;;;;;;;14.78;100.00;98055.47;5050557;28;20028;-75
2023/05/28 01:07:50;;;;;;;1999.90;999.90;;;;;;;14.61;100.00;98033.38;5050400;28;20028;-75
2023/05/28 01:10:16;;;;;;;1999.90;999.90;;;;;;;14.62;100.00;98036.94;5051807;28;20079;-75
2023/05/28 01:12:43;;;;;;;1999.90;999.90;;;;;;;14.57;100.00;98032.38;5051556;28;20068;-77
2023/05/28 01:15:10;;;;;;;1999.90;999.90;;;;;;;14.59;100.00;98041.16;5051583;28;20060;-75
2023/05/28 01:17:36;;;;;;;1999.90;999.90;;;;;;;14.54;100.00;98032.22;5050175;28;20080;-75
2023/05/28 01:20:05;;;;;;;1999.90;999.90;;;;;;;14.41;100.00;98022.94;5051597;28;20405;-76
2023/05/28 01:22:37;;;;;;;1999.90;999.90;;;;;;;14.43;100.00;98024.25;5051563;28;20033;-77
2023/05/28 01:25:09;;;;;;;1999.90;999.90;;;;;;;14.56;100.00;98022.53;5050835;28;20032;-75
2023/05/28 01:27:37;;;;;;;1999.90;999.90;;;;;;;14.63;100.00;98020.09;5049577;28;20452;-76
2023/05/28 01:30:05;;;;;;;1999.90;999.90;;;;;;;14.47;100.00;98005.16;5049657;28;20060;-77
2023/05/28 01:32:30;;;;;;;1999.90;999.90;;;;;;;14.30;100.00;98025.16;5050623;28;20456;-75
2023/05/28 01:34:56;;;;;;;1999.90;999.90;;;;;;;14.33;100.00;98016.28;5051093;28;20067;-75
2023/05/28 01:37:22;;;;;;;1999.90;999.90;;;;;;;14.28;100.00;98019.13;5051047;28;20021;-75
2023/05/28 01:39:50;;;;;;;1999.90;999.90;;;;;;;14.30;100.00;98013.31;5050336;28;20025;-76
2023/05/28 01:42:15;;;;;;;1999.90;999.90;;;;;;;14.37;100.00;98022.78;5051120;28;20470;-77
2023/05/28 01:44:42;;;;;;;1999.90;999.90;;;;;;;14.28;100.00;98015.59;5050989;28;20037;-76
2023/05/28 01:47:09;;;;;;;1999.90;999.90;;;;;;;14.29;100.00;98003.44;5051044;28;20025;-76
2023/05/28 01:49:37;;;;;;;1999.90;999.90;;;;;;;14.38;100.00;98007.06;5049624;28;20486;-75
2023/05/28 01:52:03;;;;;;;1999.90;999.90;;;;;;;14.33;100.00;98010.78;5050849;28;20072;-76
2023/05/28 01:54:28;;;;;;;1999.90;999.90;;;;;;;14.34;100.00;98017.09;5050914;28;20017;-76
2023/05/28 01:56:53;;;;;;;1999.90;999.90;;;;;;;14.26;100.00;98015.06;5050799;28;20028;-74
2023/05/28 01:59:20;;;;;;;1999.90;999.90;;;;;;;14.30;100.00;98010.56;5050784;28;20036;-77
2023/05/28 02:01:45;;;;;;;1999.90;999.90;;;;;;;14.31;100.00;98015.78;5050678;28;20482;-75
2023/05/28 02:04:10;;;;;;;1999.90;999.90;;;;;;;14.32;100.00;98022.06;5049525;28;20033;-75
2023/05/28 02:06:36;;;;;;;1999.90;999.90;;;;;;;14.29;100.00;98019.94;5050645;28;20032;-75
2023/05/28 02:09:02;;;;;;;1999.90;999.90;;;;;;;14.19;100.00;98017.50;5050720;28;20478;-75
2023/05/28 02:11:27;;;;;;;1999.90;999.90;;;;;;;14.13;100.00;98021.50;5049529;28;20052;-75
2023/05/28 02:13:54;;;;;;;1999.90;999.90;;;;;;;14.17;100.00;98019.72;5032854;28;20056;-75
2023/05/28 02:16:20;;;;;;;1999.90;999.90;;;;;;;14.20;100.00;98019.09;5050604;28;20021;-75
2023/05/28 02:18:47;;;;;;;1999.90;999.90;;;;;;;14.17;100.00;98014.22;5050279;28;20029;-74
2023/05/28 02:21:13;;;;;;;1999.90;999.90;;;;;;;14.15;100.00;98022.00;5050388;28;20032;-74
2023/05/28 02:23:44;;;;;;;1999.90;999.90;;;;;;;14.22;100.00;98014.13;5050623;28;20025;-73
2023/05/28 02:26:09;;;;;;;1999.90;999.90;;;;;;;14.19;100.00;98009.25;5050492;28;20506;-75
2023/05/28 02:28:35;;;;;;;1999.90;999.90;;;;;;;14.18;100.00;98007.59;5049278;28;20041;-73
2023/05/28 02:31:00;;;;;;;1999.90;999.90;;;;;;;13.99;100.00;97996.03;5050506;28;20024;-76
2023/05/28 02:33:25;;;;;;;1999.90;999.90;;;;;;;14.07;100.00;97998.00;5050325;28;20047;-74
2023/05/28 02:35:51;;;;;;;1999.90;999.90;;;;;;;14.00;100.00;97990.22;5050231;28;20039;-74
2023/05/28 02:38:16;;;;;;;1999.90;999.90;;;;;;;14.00;100.00;98000.41;5050424;28;20049;-73
2023/05/28 02:40:42;;;;;;;1999.90;999.90;;;;;;;14.00;100.00;98003.97;5050887;28;20036;-75
2023/05/28 02:43:07;;;;;;;1999.90;999.90;;;;;;;13.96;100.00;97997.47;5050378;28;20091;-74
2023/05/28 02:45:32;;;;;;;1999.90;999.90;;;;;;;13.92;100.00;98004.72;5053723;28;20009;-74
2023/05/28 02:47:57;;;;;;;1999.90;999.90;;;;;;;13.77;100.00;98000.44;5050307;28;20036;-75
2023/05/28 02:50:23;;;;;;;1999.90;999.90;;;;;;;13.62;100.00;97981.63;5050065;28;20021;-74
2023/05/28 02:52:49;;;;;;;1999.90;999.90;;;;;;;13.62;100.00;97986.28;5050050;28;20029;-74
2023/05/28 02:55:14;;;;;;;1999.90;999.90;;;;;;;13.60;100.00;97985.78;5048914;28;20021;-76
2023/05/28 02:57:40;;;;;;;1999.90;999.90;;;;;;;13.49;100.00;97989.91;5048833;28;20112;-74
2023/05/28 03:00:09;;;;;;;1999.90;999.90;;;;;;;13.53;100.00;97990.94;5051157;28;20496;-76
2023/05/28 03:02:34;;;;;;;1999.90;999.90;;;;;;;13.46;100.00;97991.38;5052462;28;20029;-76
2023/05/28 03:05:02;;;;;;;1999.90;999.90;;;;;;;13.51;100.00;97988.47;5051164;28;20563;-73
2023/05/28 03:07:28;;;;;;;1999.90;999.90;;;;;;;13.59;100.00;97985.00;5050061;28;20024;-74
2023/05/28 03:09:53;;;;;;;1999.90;999.90;;;;;;;13.55;100.00;97988.66;5049835;28;20021;-75
2023/05/28 03:12:19;;;;;;;1999.90;999.90;;;;;;;13.39;100.00;97996.47;5050484;28;20497;-74
2023/05/28 03:14:44;;;;;;;1999.90;999.90;;;;;;;13.33;100.00;97986.75;5049897;28;20478;-75
2023/05/28 03:17:10;;;;;;;1999.90;999.90;;;;;;;13.02;100.00;97941.88;5049768;28;20029;-75
2023/05/28 03:19:36;;;;;;;1999.90;999.90;;;;;;;13.23;100.00;97984.22;5049952;28;20025;-75
2023/05/28 03:22:02;;;;;;;1999.90;999.90;;;;;;;13.25;100.00;97980.03;5049935;28;20028;-75
2023/05/28 03:24:27;;;;;;;1999.90;999.90;;;;;;;13.27;100.00;97975.06;5049945;28;20025;-76
2023/05/28 03:26:53;;;;;;;1999.90;999.90;;;;;;;13.26;100.00;97994.59;5035661;28;20033;-75
2023/05/28 03:29:18;;;;;;;1999.90;999.90;;;;;;;13.14;100.00;97986.09;5047670;28;20111;-75
2023/05/28 03:31:46;;;;;;;1999.90;999.90;;;;;;;13.20;100.00;97987.59;5045209;28;20037;-75
2023/05/28 03:34:11;;;;;;;1999.90;999.90;;;;;;;13.42;100.00;97982.13;5031736;28;20037;-74
2023/05/28 03:36:40;;;;;;;1999.90;999.90;;;;;;;13.61;100.00;97982.72;5031787;28;20064;-75
2023/05/28 03:39:05;;;;;;;1999.90;999.90;;;;;;;13.79;100.00;97983.63;5033260;28;20025;-74
2023/05/28 03:41:31;;;;;;;1999.90;999.90;;;;;;;13.98;100.00;97989.72;5033472;28;20036;-75
2023/05/28 03:43:56;;;;;;;1999.90;999.90;;;;;;;14.19;100.00;97977.00;5039292;28;20024;-73
2023/05/28 03:46:21;;;;;;;1999.90;999.90;;;;;;;14.47;100.00;97994.16;5051427;28;20387;-75
2023/05/28 03:48:47;;;;;;;1999.90;999.90;;;;;;;14.56;100.00;97985.91;5052751;28;20493;-75
2023/05/28 03:51:12;;;;;;;1999.90;999.90;;;;;;;14.74;100.00;97998.59;5052745;28;20063;-74
2023/05/28 03:53:37;;;;;;;1999.90;999.90;;;;;;;15.16;100.00;97994.25;5051560;28;20127;-75
2023/05/28 03:56:03;;;;;;;1999.90;999.90;;;;;;;15.28;100.00;97991.66;5051308;28;20481;-76
2023/05/28 03:58:28;;;;;;;1999.90;999.90;;;;;;;14.99;100.00;97995.88;5052575;28;20032;-75
2023/05/28 04:00:53;;;;;;;1999.90;999.90;;;;;;;15.34;100.00;97990.38;5051327;28;20029;-75
2023/05/28 04:03:18;;;;;;;1999.90;999.90;;;;;;;15.41;100.00;97994.22;5052402;28;20025;-75
2023/05/28 04:05:44;;;;;;;1999.90;999.90;;;;;;;15.02;100.00;97994.41;5052273;28;20021;-75
2023/05/28 04:08:09;;;;;;;1999.90;999.90;;;;;;;14.67;100.00;97988.03;5052956;28;20032;-75
2023/05/28 04:10:35;;;;;;;1999.90;999.90;;;;;;;14.59;100.00;97994.34;5052398;28;20156;-76
2023/05/28 04:13:00;;;;;;;1999.90;999.90;;;;;;;14.69;100.00;97991.28;5052517;28;20031;-75
2023/05/28 04:15:26;;;;;;;1999.90;999.90;;;;;;;14.93;100.00;97991.66;5051008;28;20056;-75
2023/05/28 04:17:51;;;;;;;1999.90;999.90;;;;;;;15.15;100.00;97992.63;5052183;28;20020;-74
2023/05/28 04:20:16;;;;;;;1999.90;999.90;;;;;;;15.82;100.00;98001.19;5052152;28;20066;-75
2023/05/28 04:22:42;;;;;;;1999.90;999.90;;;;;;;16.13;100.00;98014.75;5050940;28;20070;-75
2023/05/28 04:25:07;;;;;;;1999.90;999.90;;;;;;;15.95;100.00;98002.94;5050990;28;20024;-75
2023/05/28 04:27:33;;;;;;;1999.90;999.90;;;;;;;15.96;100.00;98007.31;5036597;28;20056;-76
2023/05/28 04:29:58;;;;;;;1999.90;999.90;;;;;;;16.79;100.00;98013.16;5050794;28;20040;-80
2023/05/28 04:32:24;;;;;;;1999.90;999.90;;;;;;;17.33;100.00;98014.88;5051796;28;20097;-75
2023/05/28 04:34:53;;;;;;;1999.90;999.90;;;;;;;17.84;100.00;98023.91;5067346;28;20124;-75
2023/05/28 04:37:19;;;;;;;1999.90;999.90;;;;;;;18.00;100.00;98022.91;5051866;28;20401;-74
2023/05/28 04:39:44;;;;;;;1999.90;999.90;;;;;;;17.06;100.00;98029.25;5051839;28;20083;-77
2023/05/28 04:42:13;;;;;;;1999.90;999.90;;;;;;;16.49;100.00;98024.16;5051969;28;20494;-75
2023/05/28 04:44:40;;;;;;;1999.90;999.90;;;;;;;16.33;100.00;98017.56;5051878;28;20025;-73
2023/05/28 04:47:05;;;;;;;1999.90;999.90;;;;;;;16.02;100.00;98019.78;5051718;28;20039;-74
2023/05/28 04:49:31;;;;;;;1999.90;999.90;;;;;;;16.78;100.00;98022.59;5051870;28;20025;-74
2023/05/28 04:51:57;;;;;;;1999.90;999.90;;;;;;;17.68;100.00;98032.03;5053322;28;20051;-75
2023/05/28 04:54:22;;;;;;;1999.90;999.90;;;;;;;18.54;96.79;98017.25;5051933;28;20389;-74
2023/05/28 04:56:48;;;;;;;1999.90;999.90;;;;;;;18.02;97.85;98031.69;5051705;28;20021;-80
2023/05/28 04:59:13;;;;;;;1999.90;999.90;;;;;;;17.31;100.00;98030.19;5050547;28;20120;-78
2023/05/28 05:01:39;;;;;;;1999.90;999.90;;;;;;;17.22;100.00;98032.22;5051441;28;20056;-74
2023/05/28 05:04:06;;;;;;;1999.90;999.90;;;;;;;17.21;100.00;98030.59;5049925;28;20086;-76
2023/05/28 05:06:32;;;;;;;1999.90;999.90;;;;;;;16.82;100.00;98026.31;5051366;28;20033;-73
2023/05/28 05:08:58;;;;;;;1999.90;999.90;;;;;;;16.81;100.00;98028.25;5051473;28;20032;-75
2023/05/28 05:11:23;;;;;;;1999.90;999.90;;;;;;;16.95;100.00;98028.00;5051180;28;20048;-74
2023/05/28 05:13:49;;;;;;;1999.90;999.90;;;;;;;17.11;100.00;98037.31;5051382;28;20074;-74
2023/05/28 05:16:14;;;;;;;1999.90;999.90;;;;;;;17.21;100.00;98036.13;5051100;28;20025;-77
2023/05/28 05:18:39;;;;;;;1999.90;999.90;;;;;;;17.06;100.00;98032.00;5051162;28;20021;-75
2023/05/28 05:21:06;;;;;;;1999.90;999.90;;;;;;;16.93;100.00;98031.13;5039490;28;20064;-74
2023/05/28 05:23:31;;;;;;;1999.90;999.90;;;;;;;16.91;100.00;98038.13;5041531;28;20041;-82
2023/05/28 05:25:57;;;;;;;1999.90;999.90;;;;;;;16.78;100.00;98039.97;5044318;28;20029;-80
2023/05/28 05:28:22;;;;;;;1999.90;999.90;;;;;;;16.82;100.00;98040.13;5051412;28;20036;-79
2023/05/28 05:30:48;;;;;;;1999.90;999.90;;;;;;;16.96;100.00;98049.78;5033394;28;20531;-76
2023/05/28 05:33:13;;;;;;;1999.90;999.90;;;;;;;17.24;100.00;98040.97;5048631;28;20040;-76
2023/05/28 05:35:38;;;;;;;1999.90;999.90;;;;;;;17.27;100.00;98043.06;5051076;28;20563;-77
2023/05/28 05:38:04;;;;;;;1999.90;999.90;;;;;;;17.33;100.00;98041.72;5050816;28;20521;-75
2023/05/28 05:40:29;;;;;;;1999.90;999.90;;;;;;;17.39;100.00;98043.13;5049468;28;20078;-82
2023/05/28 05:42:54;;;;;;;1999.90;999.90;;;;;;;17.28;100.00;98048.28;5049431;28;20025;-76
2023/05/28 05:45:20;;;;;;;1999.90;999.90;;;;;;;17.28;100.00;98042.75;5048957;28;20155;-75
2023/05/28 05:47:45;;;;;;;1999.90;999.90;;;;;;;17.50;100.00;98044.38;5050632;28;20051;-76
2023/05/28 05:50:12;;;;;;;1999.90;999.90;;;;;;;17.51;98.61;98048.75;5050647;28;20025;-76
2023/05/28 05:52:37;;;;;;;1999.90;999.90;;;;;;;17.35;100.00;98047.75;5049310;28;20106;-77
2023/05/28 05:55:02;;;;;;;1999.90;999.90;;;;;;;17.08;100.00;98049.88;5050005;28;20470;-75
2023/05/28 05:57:28;;;;;;;1999.90;999.90;;;;;;;17.31;100.00;98052.31;5050430;28;20036;-75
2023/05/28 05:59:54;;;;;;;1999.90;999.90;;;;;;;17.24;99.38;98046.50;5050164;28;20029;-75
2023/05/28 06:02:20;;;;;;;1999.90;999.90;;;;;;;17.43;97.34;98044.91;5049938;28;20029;-77
2023/05/28 06:04:45;;;;;;;1999.90;999.90;;;;;;;17.05;99.85;98055.25;5050295;28;20100;-75
2023/05/28 06:07:10;;;;;;;1999.90;999.90;;;;;;;17.80;97.58;98037.59;5050235;28;20466;-76
2023/05/28 06:09:36;;;;;;;1999.90;999.90;;;;;;;18.11;93.64;98045.41;5050465;28;20029;-77
2023/05/28 06:12:01;;;;;;;1999.90;999.90;;;;;;;18.13;93.60;98040.38;5049115;28;20528;-77
2023/05/28 06:14:28;;;;;;;1999.90;999.90;;;;;;;18.21;95.19;98033.91;5050264;28;20122;-74
2023/05/28 06:16:53;;;;;;;1999.90;999.90;;;;;;;18.56;93.15;98048.19;5050101;28;20072;-74
2023/05/28 06:19:19;;;;;;;1999.90;999.90;;;;;;;18.71;91.76;98033.66;5050149;28;20155;-75
2023/05/28 06:21:44;;;;;;;1999.90;999.90;;;;;;;18.46;92.88;98035.56;5033296;28;20037;-75
2023/05/28 06:24:09;;;;;;;1999.90;999.90;;;;;;;18.48;93.00;98036.03;5030357;28;20449;-75
2023/05/28 06:26:35;;;;;;;1999.90;999.90;;;;;;;18.53;93.19;98037.81;5029270;28;20083;-74
2023/05/28 06:29:00;;;;;;;1999.90;999.90;;;;;;;18.53;91.62;98032.25;5038306;28;20052;-76
2023/05/28 06:31:25;;;;;;;1999.90;999.90;;;;;;;18.62;90.55;98030.19;5049444;28;20021;-76
2023/05/28 06:33:51;;;;;;;1999.90;999.90;;;;;;;18.67;89.82;98035.50;5049435;28;20028;-75
2023/05/28 06:36:17;;;;;;;1999.90;999.90;;;;;;;18.82;89.46;98034.81;5049551;28;20017;-76
2023/05/28 06:38:43;;;;;;;1999.90;999.90;;;;;;;19.24;86.75;98036.16;5048274;28;20045;-74
2023/05/28 06:41:08;;;;;;;1999.90;999.90;;;;;;;19.53;83.91;98037.03;5049497;28;20021;-79
2023/05/28 06:43:33;;;;;;;1999.90;999.90;;;;;;;19.86;81.57;98037.59;5049844;28;20392;-77
2023/05/28 06:45:59;;;;;;;1999.90;999.90;;;;;;;19.89;78.60;98031.31;5049449;28;20485;-75
2023/05/28 06:48:24;;;;;;;1999.90;999.90;;;;;;;19.94;76.26;98036.63;5049648;28;20485;-75
2023/05/28 06:50:49;;;;;;;1999.90;999.90;;;;;;;19.81;73.09;98043.41;5049899;28;20036;-74
2023/05/28 06:53:15;;;;;;;1999.90;999.90;;;;;;;19.80;71.92;98036.22;5049882;28;20029;-78
2023/05/28 06:55:40;;;;;;;1999.90;999.90;;;;;;;19.96;72.05;98045.41;5051683;28;20478;-75
2023/05/28 06:58:06;;;;;;;1999.90;999.90;;;;;;;20.07;71.39;98052.09;5049831;28;20434;-74
2023/05/28 07:00:32;;;;;;;1999.90;999.90;;;;;;;20.05;67.63;98045.25;5050100;28;20028;-75
2023/05/28 07:02:57;;;;;;;1999.90;999.90;;;;;;;20.14;66.52;98046.69;5048233;28;20032;-78
2023/05/28 07:05:22;;;;;;;1999.90;999.90;;;;;;;20.05;60.55;98054.38;5050213;28;20151;-75
2023/05/28 07:07:48;;;;;;;1999.90;999.90;;;;;;;20.04;60.07;98041.69;5052605;28;20021;-76
2023/05/28 07:10:13;;;;;;;1999.90;999.90;;;;;;;19.43;66.25;98045.84;5052248;28;20474;-76
2023/05/28 07:12:39;;;;;;;1999.90;999.90;;;;;;;19.81;60.67;98051.72;5052300;28;20504;-76
2023/05/28 07:15:06;;;;;;;1999.90;999.90;;;;;;;19.78;61.29;98049.66;5052299;28;20043;-74
2023/05/28 07:17:31;;;;;;;1999.90;999.90;;;;;;;20.05;60.50;98043.28;5047869;28;20037;-76
2023/05/28 07:19:57;;;;;;;1999.90;999.90;;;;;;;20.40;61.42;98042.66;5050448;28;20444;-76
2023/05/28 07:22:23;;;;;;;1999.90;999.90;;;;;;;20.59;59.83;98029.66;5051286;28;20051;-76
2023/05/28 07:24:49;;;;;;;1999.90;999.90;;;;;;;20.71;59.29;98037.09;5052544;28;20094;-75
2023/05/28 07:27:14;;;;;;;1999.90;999.90;;;;;;;20.72;58.39;98033.16;5051654;28;20025;-76
2023/05/28 07:29:39;;;;;;;1999.90;999.90;;;;;;;20.97;58.23;98028.19;5051827;28;20029;-76
2023/05/28 07:32:05;;;;;;;1999.90;999.90;;;;;;;21.10;54.90;98038.88;5051923;28;20477;-76
2023/05/28 07:34:30;;;;;;;1999.90;999.90;;;;;;;21.35;53.92;98040.25;5052552;28;20029;-76
2023/05/28 07:36:56;;;;;;;1999.90;999.90;;;;;;;21.18;55.96;98037.06;5052843;28;20456;-78
2023/05/28 07:39:22;;;;;;;1999.90;999.90;;;;;;;21.19;55.40;98038.69;5053411;28;20017;-80
2023/05/28 07:41:48;;;;;;;1999.90;999.90;;;;;;;21.49;54.45;98027.84;5053130;28;20487;-75
2023/05/28 07:44:15;;;;;;;1999.90;999.90;;;;;;;21.90;51.19;98029.91;5048855;28;20026;-75
2023/05/28 07:46:40;;;;;;;1999.90;999.90;;;;;;;22.06;51.04;98029.81;5057897;28;20075;-78
2023/05/28 07:49:06;;;;;;;1999.90;999.90;;;;;;;21.42;50.08;98027.66;5059781;28;20437;-77
2023/05/28 07:51:32;;;;;;;1999.90;999.90;;;;;;;21.06;50.94;98024.03;5054478;28;20024;-77
2023/05/28 07:53:58;;;;;;;1999.90;999.90;;;;;;;21.31;48.58;98030.19;5053166;28;20024;-79
2023/05/28 07:56:23;;;;;;;1999.90;999.90;;;;;;;21.91;48.26;98031.53;5053168;28;20500;-75
2023/05/28 07:58:49;;;;;;;1999.90;999.90;;;;;;;22.49;47.55;98021.03;5053999;28;20025;-76
2023/05/28 08:01:14;;;;;;;1999.90;999.90;;;;;;;22.96;45.44;98029.06;5054733;28;20021;-75
2023/05/28 08:03:39;;;;;;;1999.90;999.90;;;;;;;23.76;43.61;98022.22;5055824;28;20017;-76
2023/05/28 08:06:06;;;;;;;1999.90;999.90;;;;;;;23.31;44.53;98025.97;5062221;28;20059;-85
2023/05/28 08:08:32;;;;;;;1999.90;999.90;;;;;;;24.94;40.62;98021.09;5062026;28;20040;-86
2023/05/28 08:10:57;;;;;;;1999.90;999.90;;;;;;;26.75;36.52;98021.91;5060549;28;20799;-78
2023/05/28 08:13:23;;;;;;;1999.90;999.90;;;;;;;27.76;34.58;98022.19;5061002;28;20061;-81
2023/05/28 08:15:48;;;;;;;1999.90;999.90;;;;;;;28.49;33.22;98032.31;5062061;28;20568;-78
2023/05/28 08:18:17;;;;;;;1999.90;999.90;;;;;;;28.83;32.85;98029.66;5068202;28;20029;-80
2023/05/28 08:20:44;;;;;;;1999.90;999.90;;;;;;;29.33;31.90;98030.06;5072624;28;20388;-77
2023/05/28 08:23:10;;;;;;;1999.90;999.90;;;;;;;28.18;32.97;98019.22;5059752;28;20033;-76
2023/05/28 08:25:35;;;;;;;1999.90;999.90;;;;;;;26.40;36.28;98008.63;5050328;28;20535;-77
2023/05/28 08:28:01;;;;;;;1999.90;999.90;;;;;;;26.03;36.96;98012.50;5059681;28;20039;-75
2023/05/28 08:30:26;;;;;;;1999.90;999.90;;;;;;;25.38;36.60;98006.16;5061978;28;20382;-76
2023/05/28 08:32:52;;;;;;;1999.90;999.90;;;;;;;26.59;35.10;98011.06;5071592;28;20123;-76
2023/05/28 08:35:17;;;;;;;1999.90;999.90;;;;;;;27.69;33.21;98005.34;5056313;28;20025;-75
2023/05/28 08:37:45;;;;;;;1999.90;999.90;;;;;;;28.31;31.16;98013.94;5064629;28;20039;-79
2023/05/28 08:40:13;;;;;;;1999.90;999.90;;;;;;;28.46;29.86;98015.44;5054326;28;20038;-78
2023/05/28 08:42:38;;;;;;;1999.90;999.90;;;;;;;28.98;30.05;98004.97;5049798;28;20772;-78
2023/05/28 08:45:05;;;;;;;1999.90;999.90;;;;;;;27.92;32.15;98008.47;5053791;28;20019;-75
2023/05/28 08:47:35;;;;;;;1999.90;999.90;;;;;;;27.28;33.04;98002.22;5054225;28;20051;-79
2023/05/28 08:50:06;;;;;;;1999.90;999.90;;;;;;;28.16;32.46;97999.91;5056249;28;20025;-77
2023/05/28 08:52:34;;;;;;;1999.90;999.90;;;;;;;29.23;31.70;98005.56;5053995;28;20694;-79
2023/05/28 08:55:03;;;;;;;1999.90;999.90;;;;;;;29.49;30.40;97996.47;5038045;28;20021;-75
2023/05/28 08:57:30;;;;;;;1999.90;999.90;;;;;;;29.50;29.60;97994.44;5055213;28;20027;-77
2023/05/28 09:00:00;;;;;;;1999.90;999.90;;;;;;;28.89;32.31;97984.94;5072686;28;20452;-76
2023/05/28 09:02:26;;;;;;;1999.90;999.90;;;;;;;27.67;32.35;97975.63;5056692;28;20531;-74
2023/05/28 09:04:56;;;;;;;1999.90;999.90;;;;;;;27.61;32.44;97980.06;5067222;28;20016;-78
2023/05/28 09:07:23;;;;;;;1999.90;999.90;;;;;;;27.33;33.02;97974.50;5058553;28;20079;-77
2023/05/28 09:09:50;;;;;;;1999.90;999.90;;;;;;;28.80;31.96;97973.34;5059637;28;20130;-77
2023/05/28 09:12:21;;;;;;;1999.90;999.90;;;;;;;29.30;33.12;97982.97;5060352;28;20493;-74
2023/05/28 09:14:52;;;;;;;1999.90;999.90;;;;;;;29.93;30.24;97981.44;5056624;28;20545;-77
2023/05/28 09:17:17;;;;;;;1999.90;999.90;;;;;;;29.29;31.66;97975.72;5071132;28;20037;-74
2023/05/28 09:19:53;;;;;;;1999.90;999.90;;;;;;;29.47;31.01;97970.72;5055697;28;20058;-76
2023/05/28 09:22:20;;;;;;;1999.90;999.90;;;;;;;29.96;31.75;97968.50;5061296;28;20029;-75
2023/05/28 09:24:50;;;;;;;1999.90;999.90;;;;;;;30.83;30.76;97967.63;5066741;28;20832;-75
2023/05/28 09:27:19;;;;;;;1999.90;999.90;;;;;;;30.89;30.19;97969.53;5072639;28;20056;-76
2023/05/28 09:29:45;;;;;;;1999.90;999.90;;;;;;;29.85;31.23;97962.22;5057761;28;20720;-72
2023/05/28 09:32:20;;;;;;;1999.90;999.90;;;;;;;30.23;30.49;97966.50;5048937;28;20500;-74
2023/05/28 09:34:50;;;;;;;1999.90;999.90;;;;;;;30.51;29.87;97971.75;5066535;28;20144;-77
2023/05/28 09:37:20;;;;;;;1999.90;999.90;;;;;;;29.40;32.58;97962.34;5056653;28;20057;-75
2023/05/28 09:39:45;;;;;;;1999.90;999.90;;;;;;;29.18;34.15;97955.28;5070756;28;20036;-74
2023/05/28 09:42:11;;;;;;;1999.90;999.90;;;;;;;28.31;35.20;97944.38;5062270;28;20454;-76
2023/05/28 09:44:41;;;;;;;1999.90;999.90;;;;;;;28.04;35.81;97946.09;5061792;28;20114;-74
2023/05/28 09:47:15;;;;;;;1999.90;999.90;;;;;;;29.45;35.06;97944.94;5070365;28;20123;-74
2023/05/28 09:49:43;;;;;;;1999.90;999.90;;;;;;;30.65;32.64;97960.25;5044895;28;20101;-76
2023/05/28 09:52:09;;;;;;;1999.90;999.90;;;;;;;31.11;30.32;97955.84;5075150;28;20035;-75
2023/05/28 09:54:41;;;;;;;1999.90;999.90;;;;;;;31.61;30.46;97948.03;5064556;28;20053;-75
2023/05/28 09:57:09;;;;;;;1999.90;999.90;;;;;;;32.33;29.30;97959.41;5058530;28;20028;-74
2023/05/28 09:59:38;;;;;;;1999.90;999.90;;;;;;;31.20;29.76;97956.09;5061597;28;20078;-75
2023/05/28 10:02:42;;;;;;;1999.90;999.90;;;;;;;31.40;29.45;97951.25;5052631;28;20035;-74
2023/05/28 10:05:10;;;;;;;1999.90;999.90;;;;;;;29.00;32.71;97935.75;5056454;28;20075;-75
2023/05/28 10:07:40;;;;;;;1999.90;999.90;;;;;;;29.90;33.00;97939.97;5054226;28;20777;-75
2023/05/28 10:10:10;;;;;;;1999.90;999.90;;;;;;;30.72;31.27;97942.38;5067286;28;20033;-73
2023/05/28 10:12:38;;;;;;;1999.90;999.90;;;;;;;31.12;30.49;97941.28;5072871;28;20101;-75
2023/05/28 10:15:06;;;;;;;1999.90;999.90;;;;;;;30.20;31.46;97933.47;5059407;28;20047;-76
2023/05/28 10:17:32;;;;;;;1999.90;999.90;;;;;;;30.05;32.30;97937.75;5060643;28;20024;-74
2023/05/28 10:20:00;;;;;;;1999.90;999.90;;;;;;;28.30;34.61;97930.69;5062769;28;20039;-73
2023/05/28 10:22:27;;;;;;;1999.90;999.90;;;;;;;28.86;34.71;97915.34;5061818;28;20481;-76
2023/05/28 10:24:53;;;;;;;1999.90;999.90;;;;;;;30.62;31.91;97921.56;5050211;28;20478;-74
2023/05/28 10:27:30;;;;;;;1999.90;999.90;;;;;;;29.67;32.39;97931.38;5059675;28;20036;-75
2023/05/28 10:30:03;;;;;;;1999.90;999.90;;;;;;;29.59;32.51;97927.88;5063213;28;20029;-76
2023/05/28 10:32:29;;;;;;;1999.90;999.90;;;;;;;29.58;33.78;97919.81;5058301;28;20404;-75
2023/05/28 10:35:02;;;;;;;1999.90;999.90;;;;;;;28.44;37.08;97908.88;5062856;28;20032;-78
2023/05/28 10:37:28;;;;;;;1999.90;999.90;;;;;;;28.55;36.28;97909.59;5053306;28;20393;-76
2023/05/28 10:39:54;;;;;;;1999.90;999.90;;;;;;;27.98;36.75;97908.38;5064965;28;20553;-74
2023/05/28 10:42:21;;;;;;;1999.90;999.90;;;;;;;27.10;38.73;97895.50;5062985;28;20103;-75
2023/05/28 10:45:11;;;;;;;1999.90;999.90;;;;;;;26.03;39.72;97896.75;5057635;28;20397;-74
2023/05/28 10:47:39;;;;;;;1999.90;999.90;;;;;;;24.87;41.13;97888.69;5056615;28;20042;-75